sensor_id;sensor_type;location;lat;lon;timestamp;P1;durP1;ratioP1;P2;durP2;ratioP2
11791;SDS011;5953;52.372;9.918;2023-05-16T00:02:08;7.17;;;4.53;;
11791;SDS011;5953;52.372;9.918;2023-05-16T00:04:36;6.33;;;4.50;;
11791;SDS011;5953;52.372;9.918;2023-05-16T00:07:05;5.80;;;4.60;;
11791;SDS011;5953;52.372;9.918;2023-05-16T00:09:35;4.53;;;4.13;;
11791;SDS011;5953;52.372;9.918;2023-05-16T00:12:03;4.17;;;3.77;;
11791;SDS011;5953;52.372;9.918;2023-05-16T00:14:31;6.90;;;4.27;;
11791;SDS011;5953;52.372;9.918;2023-05-16T00:17:01;5.73;;;4.23;;
11791;SDS011;5953;52.372;9.918;2023-05-16T00:19:37;6.17;;;4.57;;
11791;SDS011;5953;52.372;9.918;2023-05-16T00:22:06;7.63;;;4.27;;
11791;SDS011;5953;52.372;9.918;2023-05-16T00:24:34;5.10;;;4.60;;
11791;SDS011;5953;52.372;9.918;2023-05-16T00:27:02;6.70;;;4.70;;
11791;SDS011;5953;52.372;9.918;2023-05-16T00:29:30;5.87;;;4.63;;
11791;SDS011;5953;52.372;9.918;2023-05-16T00:31:58;6.20;;;4.90;;
11791;SDS011;5953;52.372;9.918;2023-05-16T00:34:26;7.07;;;4.63;;
11791;SDS011;5953;52.372;9.918;2023-05-16T00:36:54;8.13;;;5.07;;
11791;SDS011;5953;52.372;9.918;2023-05-16T00:39:23;5.07;;;4.10;;
11791;SDS011;5953;52.372;9.918;2023-05-16T00:41:51;4.90;;;4.40;;
11791;SDS011;5953;52.372;9.918;2023-05-16T00:44:19;5.43;;;4.20;;
11791;SDS011;5953;52.372;9.918;2023-05-16T00:46:47;5.23;;;4.47;;
11791;SDS011;5953;52.372;9.918;2023-05-16T00:49:15;7.40;;;3.90;;
11791;SDS011;5953;52.372;9.918;2023-05-16T00:51:43;5.73;;;4.23;;
11791;SDS011;5953;52.372;9.918;2023-05-16T00:54:11;4.97;;;4.03;;
11791;SDS011;5953;52.372;9.918;2023-05-16T00:56:41;4.90;;;4.13;;
11791;SDS011;5953;52.372;9.918;2023-05-16T00:59:09;6.40;;;4.40;;
11791;SDS011;5953;52.372;9.918;2023-05-16T01:01:37;4.77;;;3.60;;
11791;SDS011;5953;52.372;9.918;2023-05-16T01:04:06;5.80;;;4.00;;
11791;SDS011;5953;52.372;9.918;2023-05-16T01:06:34;4.20;;;3.40;;
11791;SDS011;5953;52.372;9.918;2023-05-16T01:09:03;4.27;;;3.40;;
11791;SDS011;5953;52.372;9.918;2023-05-16T01:11:33;5.47;;;3.60;;
11791;SDS011;5953;52.372;9.918;2023-05-16T01:14:11;4.47;;;3.63;;
11791;SDS011;5953;52.372;9.918;2023-05-16T01:16:48;4.90;;;3.33;;
11791;SDS011;5953;52.372;9.918;2023-05-16T01:19:25;4.37;;;3.73;;
11791;SDS011;5953;52.372;9.918;2023-05-16T01:22:14;6.87;;;3.13;;
11791;SDS011;5953;52.372;9.918;2023-05-16T01:24:49;4.90;;;3.50;;
11791;SDS011;5953;52.372;9.918;2023-05-16T01:27:30;5.30;;;2.93;;
11791;SDS011;5953;52.372;9.918;2023-05-16T01:29:59;4.07;;;2.93;;
11791;SDS011;5953;52.372;9.918;2023-05-16T01:32:27;7.30;;;2.70;;
11791;SDS011;5953;52.372;9.918;2023-05-16T01:34:56;6.40;;;2.77;;
11791;SDS011;5953;52.372;9.918;2023-05-16T01:37:26;6.53;;;2.63;;
11791;SDS011;5953;52.372;9.918;2023-05-16T01:40:02;4.87;;;2.80;;
11791;SDS011;5953;52.372;9.918;2023-05-16T01:42:41;3.73;;;2.60;;
11791;SDS011;5953;52.372;9.918;2023-05-16T01:45:14;7.07;;;3.30;;
11791;SDS011;5953;52.372;9.918;2023-05-16T01:47:50;3.43;;;2.60;;
11791;SDS011;5953;52.372;9.918;2023-05-16T01:50:24;5.10;;;2.70;;
11791;SDS011;5953;52.372;9.918;2023-05-16T01:52:57;3.57;;;2.30;;
11791;SDS011;5953;52.372;9.918;2023-05-16T01:55:28;4.33;;;2.17;;
11791;SDS011;5953;52.372;9.918;2023-05-16T01:58:08;4.97;;;2.73;;
11791;SDS011;5953;52.372;9.918;2023-05-16T02:00:38;7.00;;;2.77;;
11791;SDS011;5953;52.372;9.918;2023-05-16T02:03:08;6.10;;;2.93;;
11791;SDS011;5953;52.372;9.918;2023-05-16T02:05:36;5.93;;;2.60;;
11791;SDS011;5953;52.372;9.918;2023-05-16T02:08:04;7.97;;;2.50;;
11791;SDS011;5953;52.372;9.918;2023-05-16T02:10:33;3.03;;;1.93;;
11791;SDS011;5953;52.372;9.918;2023-05-16T02:13:01;4.50;;;2.07;;
11791;SDS011;5953;52.372;9.918;2023-05-16T02:15:30;3.50;;;2.27;;
11791;SDS011;5953;52.372;9.918;2023-05-16T02:17:58;3.47;;;2.27;;
11791;SDS011;5953;52.372;9.918;2023-05-16T02:20:26;5.00;;;2.30;;
11791;SDS011;5953;52.372;9.918;2023-05-16T02:22:54;6.30;;;2.63;;
11791;SDS011;5953;52.372;9.918;2023-05-16T02:25:23;8.20;;;2.50;;
11791;SDS011;5953;52.372;9.918;2023-05-16T02:27:51;3.50;;;2.40;;
11791;SDS011;5953;52.372;9.918;2023-05-16T02:30:19;3.73;;;2.40;;
11791;SDS011;5953;52.372;9.918;2023-05-16T02:32:49;8.70;;;3.20;;
11791;SDS011;5953;52.372;9.918;2023-05-16T02:35:19;5.80;;;2.93;;
11791;SDS011;5953;52.372;9.918;2023-05-16T02:37:47;6.47;;;3.20;;
11791;SDS011;5953;52.372;9.918;2023-05-16T02:40:16;5.03;;;3.40;;
11791;SDS011;5953;52.372;9.918;2023-05-16T02:42:43;6.53;;;3.27;;
11791;SDS011;5953;52.372;9.918;2023-05-16T02:45:11;7.93;;;3.93;;
11791;SDS011;5953;52.372;9.918;2023-05-16T02:47:39;7.23;;;3.40;;
11791;SDS011;5953;52.372;9.918;2023-05-16T02:50:09;5.23;;;3.67;;
11791;SDS011;5953;52.372;9.918;2023-05-16T02:52:37;6.27;;;3.97;;
11791;SDS011;5953;52.372;9.918;2023-05-16T02:55:05;12.83;;;4.43;;
11791;SDS011;5953;52.372;9.918;2023-05-16T02:57:36;4.73;;;3.60;;
11791;SDS011;5953;52.372;9.918;2023-05-16T03:00:04;5.60;;;3.87;;
11791;SDS011;5953;52.372;9.918;2023-05-16T03:02:35;7.67;;;4.50;;
11791;SDS011;5953;52.372;9.918;2023-05-16T03:05:04;10.40;;;4.77;;
11791;SDS011;5953;52.372;9.918;2023-05-16T03:07:33;5.83;;;4.17;;
11791;SDS011;5953;52.372;9.918;2023-05-16T03:10:01;8.10;;;4.67;;
11791;SDS011;5953;52.372;9.918;2023-05-16T03:12:29;7.07;;;5.13;;
11791;SDS011;5953;52.372;9.918;2023-05-16T03:14:57;7.50;;;4.20;;
11791;SDS011;5953;52.372;9.918;2023-05-16T03:17:25;6.70;;;4.27;;
11791;SDS011;5953;52.372;9.918;2023-05-16T03:19:53;5.03;;;4.27;;
11791;SDS011;5953;52.372;9.918;2023-05-16T03:22:20;5.60;;;4.07;;
11791;SDS011;5953;52.372;9.918;2023-05-16T03:24:49;6.73;;;5.30;;
11791;SDS011;5953;52.372;9.918;2023-05-16T03:27:17;7.43;;;6.00;;
11791;SDS011;5953;52.372;9.918;2023-05-16T03:29:45;8.57;;;5.77;;
11791;SDS011;5953;52.372;9.918;2023-05-16T03:32:13;6.60;;;4.90;;
11791;SDS011;5953;52.372;9.918;2023-05-16T03:34:40;10.00;;;5.53;;
11791;SDS011;5953;52.372;9.918;2023-05-16T03:37:08;7.53;;;4.97;;
11791;SDS011;5953;52.372;9.918;2023-05-16T03:39:36;9.33;;;4.90;;
11791;SDS011;5953;52.372;9.918;2023-05-16T03:42:05;9.20;;;4.30;;
11791;SDS011;5953;52.372;9.918;2023-05-16T03:44:33;6.83;;;4.83;;
11791;SDS011;5953;52.372;9.918;2023-05-16T03:47:01;7.17;;;4.97;;
11791;SDS011;5953;52.372;9.918;2023-05-16T03:49:29;8.17;;;3.60;;
11791;SDS011;5953;52.372;9.918;2023-05-16T03:51:56;8.80;;;3.63;;
11791;SDS011;5953;52.372;9.918;2023-05-16T03:54:24;4.50;;;2.90;;
11791;SDS011;5953;52.372;9.918;2023-05-16T03:56:52;3.53;;;2.23;;
11791;SDS011;5953;52.372;9.918;2023-05-16T03:59:21;4.20;;;2.20;;
11791;SDS011;5953;52.372;9.918;2023-05-16T04:01:49;8.60;;;2.87;;
11791;SDS011;5953;52.372;9.918;2023-05-16T04:04:17;7.43;;;2.80;;
11791;SDS011;5953;52.372;9.918;2023-05-16T04:06:45;9.37;;;3.40;;
11791;SDS011;5953;52.372;9.918;2023-05-16T04:09:12;6.27;;;2.50;;
11791;SDS011;5953;52.372;9.918;2023-05-16T04:11:40;8.40;;;2.87;;
11791;SDS011;5953;52.372;9.918;2023-05-16T04:14:08;8.87;;;3.17;;
11791;SDS011;5953;52.372;9.918;2023-05-16T04:16:37;6.60;;;3.00;;
11791;SDS011;5953;52.372;9.918;2023-05-16T04:19:05;9.20;;;2.80;;
11791;SDS011;5953;52.372;9.918;2023-05-16T04:21:33;10.90;;;3.43;;
11791;SDS011;5953;52.372;9.918;2023-05-16T04:24:01;5.77;;;2.90;;
11791;SDS011;5953;52.372;9.918;2023-05-16T04:26:29;7.53;;;2.73;;
11791;SDS011;5953;52.372;9.918;2023-05-16T04:28:57;10.10;;;2.73;;
11791;SDS011;5953;52.372;9.918;2023-05-16T04:31:25;7.33;;;2.77;;
11791;SDS011;5953;52.372;9.918;2023-05-16T04:33:54;8.30;;;2.83;;
11791;SDS011;5953;52.372;9.918;2023-05-16T04:36:23;8.57;;;3.63;;
11791;SDS011;5953;52.372;9.918;2023-05-16T04:38:54;11.33;;;3.57;;
11791;SDS011;5953;52.372;9.918;2023-05-16T04:41:22;11.47;;;3.80;;
11791;SDS011;5953;52.372;9.918;2023-05-16T04:43:50;11.23;;;4.50;;
11791;SDS011;5953;52.372;9.918;2023-05-16T04:46:18;12.73;;;4.60;;
11791;SDS011;5953;52.372;9.918;2023-05-16T04:48:47;12.27;;;4.80;;
11791;SDS011;5953;52.372;9.918;2023-05-16T04:51:16;12.70;;;3.77;;
11791;SDS011;5953;52.372;9.918;2023-05-16T04:53:44;17.00;;;3.90;;
11791;SDS011;5953;52.372;9.918;2023-05-16T04:56:11;17.13;;;3.73;;
11791;SDS011;5953;52.372;9.918;2023-05-16T04:58:39;13.83;;;3.60;;
11791;SDS011;5953;52.372;9.918;2023-05-16T05:01:08;11.40;;;3.47;;
11791;SDS011;5953;52.372;9.918;2023-05-16T05:03:36;10.27;;;2.73;;
11791;SDS011;5953;52.372;9.918;2023-05-16T05:06:05;11.40;;;2.57;;
11791;SDS011;5953;52.372;9.918;2023-05-16T05:08:34;8.47;;;2.50;;
11791;SDS011;5953;52.372;9.918;2023-05-16T05:11:01;13.07;;;2.80;;
11791;SDS011;5953;52.372;9.918;2023-05-16T05:13:29;11.10;;;3.30;;
11791;SDS011;5953;52.372;9.918;2023-05-16T05:15:57;13.37;;;2.83;;
11791;SDS011;5953;52.372;9.918;2023-05-16T05:18:25;12.77;;;3.30;;
11791;SDS011;5953;52.372;9.918;2023-05-16T05:20:53;8.37;;;3.00;;
11791;SDS011;5953;52.372;9.918;2023-05-16T05:23:20;8.10;;;2.60;;
11791;SDS011;5953;52.372;9.918;2023-05-16T05:25:50;12.13;;;2.73;;
11791;SDS011;5953;52.372;9.918;2023-05-16T05:28:17;12.03;;;3.27;;
11791;SDS011;5953;52.372;9.918;2023-05-16T05:30:45;10.47;;;2.77;;
11791;SDS011;5953;52.372;9.918;2023-05-16T05:33:15;13.00;;;3.40;;
11791;SDS011;5953;52.372;9.918;2023-05-16T05:35:44;9.83;;;3.40;;
11791;SDS011;5953;52.372;9.918;2023-05-16T05:38:11;15.97;;;4.10;;
11791;SDS011;5953;52.372;9.918;2023-05-16T05:40:39;9.17;;;2.50;;
11791;SDS011;5953;52.372;9.918;2023-05-16T05:43:08;15.37;;;2.97;;
11791;SDS011;5953;52.372;9.918;2023-05-16T05:45:36;8.37;;;2.53;;
11791;SDS011;5953;52.372;9.918;2023-05-16T05:48:04;14.83;;;3.13;;
11791;SDS011;5953;52.372;9.918;2023-05-16T05:50:32;15.73;;;2.50;;
11791;SDS011;5953;52.372;9.918;2023-05-16T05:53:00;10.53;;;2.27;;
11791;SDS011;5953;52.372;9.918;2023-05-16T05:55:28;7.20;;;2.30;;
11791;SDS011;5953;52.372;9.918;2023-05-16T05:57:56;16.60;;;2.60;;
11791;SDS011;5953;52.372;9.918;2023-05-16T06:00:25;15.33;;;2.60;;
11791;SDS011;5953;52.372;9.918;2023-05-16T06:02:53;11.20;;;3.03;;
11791;SDS011;5953;52.372;9.918;2023-05-16T06:05:22;15.10;;;3.40;;
11791;SDS011;5953;52.372;9.918;2023-05-16T06:07:51;11.50;;;2.67;;
11791;SDS011;5953;52.372;9.918;2023-05-16T06:10:18;11.80;;;2.57;;
11791;SDS011;5953;52.372;9.918;2023-05-16T06:12:46;13.70;;;2.93;;
11791;SDS011;5953;52.372;9.918;2023-05-16T06:15:14;13.57;;;2.73;;
11791;SDS011;5953;52.372;9.918;2023-05-16T06:17:43;13.90;;;2.97;;
11791;SDS011;5953;52.372;9.918;2023-05-16T06:20:11;8.90;;;2.80;;
11791;SDS011;5953;52.372;9.918;2023-05-16T06:22:39;11.40;;;1.97;;
11791;SDS011;5953;52.372;9.918;2023-05-16T06:25:07;10.90;;;2.87;;
11791;SDS011;5953;52.372;9.918;2023-05-16T06:27:35;11.27;;;2.37;;
11791;SDS011;5953;52.372;9.918;2023-05-16T06:30:03;13.93;;;2.30;;
11791;SDS011;5953;52.372;9.918;2023-05-16T06:32:32;7.90;;;1.97;;
11791;SDS011;5953;52.372;9.918;2023-05-16T06:35:01;15.50;;;3.33;;
11791;SDS011;5953;52.372;9.918;2023-05-16T06:37:30;10.43;;;2.63;;
11791;SDS011;5953;52.372;9.918;2023-05-16T06:39:57;12.90;;;3.20;;
11791;SDS011;5953;52.372;9.918;2023-05-16T06:42:25;13.57;;;2.60;;
11791;SDS011;5953;52.372;9.918;2023-05-16T06:44:53;14.13;;;2.43;;
11791;SDS011;5953;52.372;9.918;2023-05-16T06:47:21;14.87;;;3.07;;
11791;SDS011;5953;52.372;9.918;2023-05-16T06:49:49;9.90;;;2.67;;
11791;SDS011;5953;52.372;9.918;2023-05-16T06:52:18;10.53;;;2.77;;
11791;SDS011;5953;52.372;9.918;2023-05-16T06:54:46;8.13;;;2.30;;
11791;SDS011;5953;52.372;9.918;2023-05-16T06:57:14;17.43;;;2.27;;
11791;SDS011;5953;52.372;9.918;2023-05-16T06:59:42;8.37;;;1.80;;
11791;SDS011;5953;52.372;9.918;2023-05-16T07:02:10;9.10;;;2.40;;
11791;SDS011;5953;52.372;9.918;2023-05-16T07:04:38;9.67;;;2.00;;
11791;SDS011;5953;52.372;9.918;2023-05-16T07:07:06;10.37;;;2.90;;
11791;SDS011;5953;52.372;9.918;2023-05-16T07:09:35;12.40;;;2.00;;
11791;SDS011;5953;52.372;9.918;2023-05-16T07:12:03;13.03;;;2.70;;
11791;SDS011;5953;52.372;9.918;2023-05-16T07:14:32;11.60;;;3.00;;
11791;SDS011;5953;52.372;9.918;2023-05-16T07:17:00;11.83;;;2.43;;
11791;SDS011;5953;52.372;9.918;2023-05-16T07:19:28;8.53;;;1.90;;
11791;SDS011;5953;52.372;9.918;2023-05-16T07:21:56;8.83;;;2.27;;
11791;SDS011;5953;52.372;9.918;2023-05-16T07:24:24;12.07;;;2.00;;
11791;SDS011;5953;52.372;9.918;2023-05-16T07:26:53;5.93;;;1.83;;
11791;SDS011;5953;52.372;9.918;2023-05-16T07:29:21;7.07;;;2.13;;
11791;SDS011;5953;52.372;9.918;2023-05-16T07:31:49;8.43;;;1.87;;
11791;SDS011;5953;52.372;9.918;2023-05-16T07:34:17;10.87;;;2.30;;
11791;SDS011;5953;52.372;9.918;2023-05-16T07:36:44;10.73;;;1.63;;
11791;SDS011;5953;52.372;9.918;2023-05-16T07:39:12;6.47;;;1.57;;
11791;SDS011;5953;52.372;9.918;2023-05-16T07:41:40;7.60;;;1.80;;
11791;SDS011;5953;52.372;9.918;2023-05-16T07:44:10;9.40;;;2.00;;
11791;SDS011;5953;52.372;9.918;2023-05-16T07:46:37;8.90;;;1.73;;
11791;SDS011;5953;52.372;9.918;2023-05-16T07:49:06;7.00;;;1.90;;
11791;SDS011;5953;52.372;9.918;2023-05-16T07:51:35;6.13;;;1.63;;
11791;SDS011;5953;52.372;9.918;2023-05-16T07:54:02;8.30;;;1.83;;
11791;SDS011;5953;52.372;9.918;2023-05-16T07:56:30;12.17;;;2.07;;
11791;SDS011;5953;52.372;9.918;2023-05-16T07:58:58;6.53;;;1.80;;
11791;SDS011;5953;52.372;9.918;2023-05-16T08:01:28;6.27;;;1.60;;
11791;SDS011;5953;52.372;9.918;2023-05-16T08:03:55;7.20;;;1.50;;
11791;SDS011;5953;52.372;9.918;2023-05-16T08:06:23;9.77;;;2.13;;
11791;SDS011;5953;52.372;9.918;2023-05-16T08:08:51;6.23;;;1.50;;
11791;SDS011;5953;52.372;9.918;2023-05-16T08:11:20;7.97;;;1.67;;
11791;SDS011;5953;52.372;9.918;2023-05-16T08:13:48;6.47;;;1.00;;
11791;SDS011;5953;52.372;9.918;2023-05-16T08:16:16;5.03;;;1.87;;
11791;SDS011;5953;52.372;9.918;2023-05-16T08:18:46;7.37;;;1.57;;
11791;SDS011;5953;52.372;9.918;2023-05-16T08:21:13;6.40;;;1.60;;
11791;SDS011;5953;52.372;9.918;2023-05-16T08:23:42;7.97;;;1.50;;
11791;SDS011;5953;52.372;9.918;2023-05-16T08:26:09;5.27;;;1.50;;
11791;SDS011;5953;52.372;9.918;2023-05-16T08:28:37;5.40;;;2.13;;
11791;SDS011;5953;52.372;9.918;2023-05-16T08:31:05;8.07;;;1.60;;
11791;SDS011;5953;52.372;9.918;2023-05-16T08:33:33;5.73;;;1.20;;
11791;SDS011;5953;52.372;9.918;2023-05-16T08:36:02;5.37;;;1.40;;
11791;SDS011;5953;52.372;9.918;2023-05-16T08:38:31;5.87;;;1.10;;
11791;SDS011;5953;52.372;9.918;2023-05-16T08:40:59;5.93;;;1.37;;
11791;SDS011;5953;52.372;9.918;2023-05-16T08:43:27;5.63;;;0.97;;
11791;SDS011;5953;52.372;9.918;2023-05-16T08:45:56;7.60;;;1.73;;
11791;SDS011;5953;52.372;9.918;2023-05-16T08:48:24;5.63;;;1.50;;
11791;SDS011;5953;52.372;9.918;2023-05-16T08:50:54;4.47;;;1.20;;
11791;SDS011;5953;52.372;9.918;2023-05-16T08:53:25;5.17;;;1.10;;
11791;SDS011;5953;52.372;9.918;2023-05-16T08:55:58;7.70;;;1.30;;
11791;SDS011;5953;52.372;9.918;2023-05-16T08:58:27;4.67;;;1.47;;
11791;SDS011;5953;52.372;9.918;2023-05-16T09:00:55;6.10;;;1.30;;
11791;SDS011;5953;52.372;9.918;2023-05-16T09:03:23;9.87;;;1.57;;
11791;SDS011;5953;52.372;9.918;2023-05-16T09:05:54;7.73;;;2.07;;
11791;SDS011;5953;52.372;9.918;2023-05-16T09:08:24;6.47;;;1.40;;
11791;SDS011;5953;52.372;9.918;2023-05-16T09:10:53;6.57;;;1.77;;
11791;SDS011;5953;52.372;9.918;2023-05-16T09:13:21;11.90;;;1.80;;
11791;SDS011;5953;52.372;9.918;2023-05-16T09:18:34;3.53;;;1.10;;
11791;SDS011;5953;52.372;9.918;2023-05-16T09:21:03;6.73;;;1.47;;
11791;SDS011;5953;52.372;9.918;2023-05-16T09:23:33;4.53;;;1.60;;
11791;SDS011;5953;52.372;9.918;2023-05-16T09:26:03;6.87;;;1.27;;
11791;SDS011;5953;52.372;9.918;2023-05-16T09:28:33;5.90;;;1.53;;
11791;SDS011;5953;52.372;9.918;2023-05-16T09:31:03;5.27;;;1.20;;
11791;SDS011;5953;52.372;9.918;2023-05-16T09:33:45;5.73;;;1.67;;
11791;SDS011;5953;52.372;9.918;2023-05-16T09:36:14;7.00;;;1.67;;
11791;SDS011;5953;52.372;9.918;2023-05-16T09:38:43;3.50;;;1.13;;
11791;SDS011;5953;52.372;9.918;2023-05-16T09:41:11;6.77;;;1.60;;
11791;SDS011;5953;52.372;9.918;2023-05-16T09:43:39;5.83;;;0.83;;
11791;SDS011;5953;52.372;9.918;2023-05-16T09:46:11;3.50;;;1.10;;
11791;SDS011;5953;52.372;9.918;2023-05-16T09:49:04;7.77;;;1.73;;
11791;SDS011;5953;52.372;9.918;2023-05-16T09:51:47;4.90;;;1.03;;
11791;SDS011;5953;52.372;9.918;2023-05-16T09:57:14;6.30;;;1.87;;
11791;SDS011;5953;52.372;9.918;2023-05-16T09:59:53;5.43;;;1.60;;
11791;SDS011;5953;52.372;9.918;2023-05-16T10:02:20;4.83;;;1.27;;
11791;SDS011;5953;52.372;9.918;2023-05-16T10:04:49;4.53;;;1.60;;
11791;SDS011;5953;52.372;9.918;2023-05-16T10:07:17;7.73;;;1.83;;
11791;SDS011;5953;52.372;9.918;2023-05-16T10:09:47;3.90;;;0.80;;
11791;SDS011;5953;52.372;9.918;2023-05-16T10:12:17;2.60;;;1.00;;
11791;SDS011;5953;52.372;9.918;2023-05-16T10:14:47;5.53;;;1.17;;
11791;SDS011;5953;52.372;9.918;2023-05-16T10:17:15;5.73;;;1.77;;
11791;SDS011;5953;52.372;9.918;2023-05-16T10:19:44;4.60;;;1.40;;
11791;SDS011;5953;52.372;9.918;2023-05-16T10:22:12;7.97;;;1.33;;
11791;SDS011;5953;52.372;9.918;2023-05-16T10:24:43;2.93;;;1.27;;
11791;SDS011;5953;52.372;9.918;2023-05-16T10:27:20;6.87;;;1.30;;
11791;SDS011;5953;52.372;9.918;2023-05-16T10:29:49;5.73;;;1.50;;
11791;SDS011;5953;52.372;9.918;2023-05-16T10:32:21;4.30;;;1.40;;
11791;SDS011;5953;52.372;9.918;2023-05-16T10:34:51;4.57;;;1.30;;
11791;SDS011;5953;52.372;9.918;2023-05-16T10:37:20;4.77;;;1.57;;
11791;SDS011;5953;52.372;9.918;2023-05-16T10:39:51;2.03;;;0.73;;
11791;SDS011;5953;52.372;9.918;2023-05-16T10:42:19;4.50;;;0.97;;
11791;SDS011;5953;52.372;9.918;2023-05-16T10:44:47;3.77;;;1.23;;
11791;SDS011;5953;52.372;9.918;2023-05-16T10:47:30;6.00;;;1.20;;
11791;SDS011;5953;52.372;9.918;2023-05-16T10:50:01;5.63;;;1.50;;
11791;SDS011;5953;52.372;9.918;2023-05-16T10:52:31;3.13;;;0.80;;
11791;SDS011;5953;52.372;9.918;2023-05-16T10:55:02;5.80;;;1.13;;
11791;SDS011;5953;52.372;9.918;2023-05-16T10:57:33;2.87;;;1.20;;
11791;SDS011;5953;52.372;9.918;2023-05-16T11:00:02;4.50;;;0.83;;
11791;SDS011;5953;52.372;9.918;2023-05-16T11:02:48;7.17;;;1.30;;
11791;SDS011;5953;52.372;9.918;2023-05-16T11:05:17;7.00;;;1.53;;
11791;SDS011;5953;52.372;9.918;2023-05-16T11:07:45;4.50;;;1.17;;
11791;SDS011;5953;52.372;9.918;2023-05-16T11:10:31;7.93;;;1.60;;
11791;SDS011;5953;52.372;9.918;2023-05-16T11:13:01;3.13;;;1.13;;
11791;SDS011;5953;52.372;9.918;2023-05-16T11:15:30;2.87;;;1.30;;
11791;SDS011;5953;52.372;9.918;2023-05-16T11:18:06;2.83;;;1.00;;
11791;SDS011;5953;52.372;9.918;2023-05-16T11:20:35;3.03;;;0.90;;
11791;SDS011;5953;52.372;9.918;2023-05-16T11:23:17;4.03;;;1.70;;
11791;SDS011;5953;52.372;9.918;2023-05-16T11:25:51;7.63;;;1.30;;
11791;SDS011;5953;52.372;9.918;2023-05-16T11:28:20;4.80;;;1.23;;
11791;SDS011;5953;52.372;9.918;2023-05-16T11:30:51;2.03;;;1.07;;
11791;SDS011;5953;52.372;9.918;2023-05-16T11:33:21;5.00;;;1.10;;
11791;SDS011;5953;52.372;9.918;2023-05-16T11:36:00;1.97;;;1.13;;
11791;SDS011;5953;52.372;9.918;2023-05-16T11:38:41;8.50;;;1.70;;
11791;SDS011;5953;52.372;9.918;2023-05-16T11:41:11;2.97;;;1.30;;
11791;SDS011;5953;52.372;9.918;2023-05-16T11:43:41;3.50;;;0.80;;
11791;SDS011;5953;52.372;9.918;2023-05-16T11:46:10;4.33;;;1.23;;
11791;SDS011;5953;52.372;9.918;2023-05-16T11:48:39;1.47;;;0.73;;
11791;SDS011;5953;52.372;9.918;2023-05-16T11:51:08;4.13;;;1.30;;
11791;SDS011;5953;52.372;9.918;2023-05-16T11:53:36;4.17;;;1.10;;
11791;SDS011;5953;52.372;9.918;2023-05-16T11:56:05;5.73;;;1.30;;
11791;SDS011;5953;52.372;9.918;2023-05-16T11:58:36;3.33;;;1.00;;
11791;SDS011;5953;52.372;9.918;2023-05-16T12:01:04;4.07;;;1.07;;
11791;SDS011;5953;52.372;9.918;2023-05-16T12:03:33;2.70;;;1.20;;
11791;SDS011;5953;52.372;9.918;2023-05-16T12:06:02;6.83;;;1.03;;
11791;SDS011;5953;52.372;9.918;2023-05-16T12:08:31;3.03;;;1.40;;
11791;SDS011;5953;52.372;9.918;2023-05-16T12:10:59;4.93;;;1.23;;
11791;SDS011;5953;52.372;9.918;2023-05-16T12:13:27;7.47;;;1.40;;
11791;SDS011;5953;52.372;9.918;2023-05-16T12:15:56;6.83;;;1.53;;
11791;SDS011;5953;52.372;9.918;2023-05-16T12:18:24;2.47;;;1.20;;
11791;SDS011;5953;52.372;9.918;2023-05-16T12:20:52;3.03;;;0.93;;
11791;SDS011;5953;52.372;9.918;2023-05-16T12:23:20;2.20;;;1.07;;
11791;SDS011;5953;52.372;9.918;2023-05-16T12:25:48;4.00;;;1.23;;
11791;SDS011;5953;52.372;9.918;2023-05-16T12:28:18;3.77;;;1.40;;
11791;SDS011;5953;52.372;9.918;2023-05-16T12:30:46;3.47;;;0.97;;
11791;SDS011;5953;52.372;9.918;2023-05-16T12:33:15;5.60;;;1.07;;
11791;SDS011;5953;52.372;9.918;2023-05-16T12:35:44;2.97;;;0.90;;
11791;SDS011;5953;52.372;9.918;2023-05-16T12:38:13;2.83;;;1.00;;
11791;SDS011;5953;52.372;9.918;2023-05-16T12:40:43;6.50;;;1.20;;
11791;SDS011;5953;52.372;9.918;2023-05-16T12:43:14;3.67;;;1.10;;
11791;SDS011;5953;52.372;9.918;2023-05-16T12:45:48;3.30;;;1.23;;
11791;SDS011;5953;52.372;9.918;2023-05-16T12:48:19;5.57;;;1.37;;
11791;SDS011;5953;52.372;9.918;2023-05-16T12:50:47;4.53;;;1.60;;
11791;SDS011;5953;52.372;9.918;2023-05-16T12:53:16;3.87;;;1.37;;
11791;SDS011;5953;52.372;9.918;2023-05-16T12:55:45;5.00;;;1.33;;
11791;SDS011;5953;52.372;9.918;2023-05-16T12:58:12;3.90;;;1.47;;
11791;SDS011;5953;52.372;9.918;2023-05-16T13:00:41;6.17;;;1.33;;
11791;SDS011;5953;52.372;9.918;2023-05-16T13:03:10;8.43;;;1.70;;
11791;SDS011;5953;52.372;9.918;2023-05-16T13:05:39;4.97;;;1.40;;
11791;SDS011;5953;52.372;9.918;2023-05-16T13:08:07;4.83;;;1.20;;
11791;SDS011;5953;52.372;9.918;2023-05-16T13:10:35;9.40;;;1.80;;
11791;SDS011;5953;52.372;9.918;2023-05-16T13:13:03;3.33;;;1.50;;
11791;SDS011;5953;52.372;9.918;2023-05-16T13:15:31;2.57;;;1.13;;
11791;SDS011;5953;52.372;9.918;2023-05-16T13:17:59;3.40;;;1.10;;
11791;SDS011;5953;52.372;9.918;2023-05-16T13:20:27;4.67;;;1.00;;
11791;SDS011;5953;52.372;9.918;2023-05-16T13:22:57;5.73;;;1.30;;
11791;SDS011;5953;52.372;9.918;2023-05-16T13:25:25;4.87;;;1.13;;
11791;SDS011;5953;52.372;9.918;2023-05-16T13:27:53;2.47;;;1.07;;
11791;SDS011;5953;52.372;9.918;2023-05-16T13:30:21;6.03;;;1.17;;
11791;SDS011;5953;52.372;9.918;2023-05-16T13:32:50;5.30;;;0.87;;
11791;SDS011;5953;52.372;9.918;2023-05-16T13:35:18;2.07;;;0.80;;
11791;SDS011;5953;52.372;9.918;2023-05-16T13:37:46;3.43;;;1.20;;
11791;SDS011;5953;52.372;9.918;2023-05-16T13:40:16;1.80;;;0.87;;
11791;SDS011;5953;52.372;9.918;2023-05-16T13:42:44;1.90;;;0.80;;
11791;SDS011;5953;52.372;9.918;2023-05-16T13:45:12;1.67;;;0.70;;
11791;SDS011;5953;52.372;9.918;2023-05-16T13:47:40;6.80;;;1.20;;
11791;SDS011;5953;52.372;9.918;2023-05-16T13:50:08;3.23;;;1.03;;
11791;SDS011;5953;52.372;9.918;2023-05-16T13:52:37;2.40;;;0.70;;
11791;SDS011;5953;52.372;9.918;2023-05-16T13:55:06;5.40;;;1.10;;
11791;SDS011;5953;52.372;9.918;2023-05-16T13:57:36;2.33;;;0.97;;
11791;SDS011;5953;52.372;9.918;2023-05-16T14:00:05;2.27;;;0.70;;
11791;SDS011;5953;52.372;9.918;2023-05-16T14:02:40;3.17;;;0.87;;
11791;SDS011;5953;52.372;9.918;2023-05-16T14:05:09;2.87;;;0.83;;
11791;SDS011;5953;52.372;9.918;2023-05-16T14:07:37;3.40;;;0.87;;
11791;SDS011;5953;52.372;9.918;2023-05-16T14:10:05;3.53;;;1.03;;
11791;SDS011;5953;52.372;9.918;2023-05-16T14:12:36;4.47;;;1.10;;
11791;SDS011;5953;52.372;9.918;2023-05-16T14:15:04;3.33;;;0.90;;
11791;SDS011;5953;52.372;9.918;2023-05-16T14:17:33;4.17;;;0.80;;
11791;SDS011;5953;52.372;9.918;2023-05-16T14:20:01;7.17;;;1.00;;
11791;SDS011;5953;52.372;9.918;2023-05-16T14:22:31;3.70;;;0.90;;
11791;SDS011;5953;52.372;9.918;2023-05-16T14:24:59;3.77;;;1.10;;
11791;SDS011;5953;52.372;9.918;2023-05-16T14:27:26;1.87;;;0.80;;
11791;SDS011;5953;52.372;9.918;2023-05-16T14:29:56;6.70;;;1.33;;
11791;SDS011;5953;52.372;9.918;2023-05-16T14:32:24;4.40;;;0.93;;
11791;SDS011;5953;52.372;9.918;2023-05-16T14:34:52;2.87;;;0.70;;
11791;SDS011;5953;52.372;9.918;2023-05-16T14:37:20;3.00;;;1.40;;
11791;SDS011;5953;52.372;9.918;2023-05-16T14:39:48;3.90;;;0.90;;
11791;SDS011;5953;52.372;9.918;2023-05-16T14:42:18;3.10;;;0.87;;
11791;SDS011;5953;52.372;9.918;2023-05-16T14:44:47;3.17;;;0.70;;
11791;SDS011;5953;52.372;9.918;2023-05-16T14:47:16;3.03;;;0.90;;
11791;SDS011;5953;52.372;9.918;2023-05-16T14:49:44;3.60;;;1.00;;
11791;SDS011;5953;52.372;9.918;2023-05-16T14:52:12;1.90;;;0.70;;
11791;SDS011;5953;52.372;9.918;2023-05-16T14:54:40;1.93;;;0.90;;
11791;SDS011;5953;52.372;9.918;2023-05-16T14:57:08;2.60;;;0.80;;
11791;SDS011;5953;52.372;9.918;2023-05-16T14:59:36;3.10;;;0.90;;
11791;SDS011;5953;52.372;9.918;2023-05-16T15:02:05;3.20;;;1.07;;
11791;SDS011;5953;52.372;9.918;2023-05-16T15:04:35;1.77;;;0.70;;
11791;SDS011;5953;52.372;9.918;2023-05-16T15:07:03;1.37;;;0.80;;
11791;SDS011;5953;52.372;9.918;2023-05-16T15:09:31;1.73;;;0.90;;
11791;SDS011;5953;52.372;9.918;2023-05-16T15:11:59;2.20;;;0.97;;
11791;SDS011;5953;52.372;9.918;2023-05-16T15:14:27;1.77;;;0.80;;
11791;SDS011;5953;52.372;9.918;2023-05-16T15:16:55;1.67;;;0.70;;
11791;SDS011;5953;52.372;9.918;2023-05-16T15:19:24;3.60;;;0.70;;